Monday, January 21, 2019, 5:55 PM EST
Back to Local

KDOV, Dover Air Force Base

Location: Dover, DE, United States Lat: 39.133
Local Time: 5:55 PM EST (22:55 GMT) Lon: -75.467
Time Zone: US/Eastern Elev: 29 ft

Show me the last for .
Show Decoded

2019-01-21 16:56 METAR KDOV 212156Z AUTO 29018G25KT 10SM CLR M07/M21 A3033 RMK AO2 PK WND
                 30030/03 SLP274 T10711214 $ =
2019-01-21 15:56 METAR KDOV 212056Z AUTO 29024G32KT 10SM CLR M06/M21 A3029 RMK AO2 PK WND
                 30032/17 SLP261 T10651213 52021 $ =
2019-01-21 14:56 METAR KDOV 211956Z AUTO 30020G28KT 10SM CLR M06/M21 A3026 RMK AO2 PK WND
                 29038/34 SLP251 T10621214 $ =
2019-01-21 13:56 METAR KDOV 211856Z AUTO 29021G29KT 10SM CLR M06/M22 A3025 RMK AO2 PK WND
                 28031/1756 SLP247 T10651220 $ =
2019-01-21 12:56 METAR KDOV 211756Z AUTO 28024G31KT 10SM CLR M07/M22 A3023 RMK AO2 PK WND
                 29034/14 SLP241 T10701217 11068 21111 51012 $ =
2019-01-21 11:56 METAR KDOV 211656Z AUTO 29022G30KT 10SM CLR M08/M22 A3023 RMK AO2 PK WND
                 28037/14 SLP241 T10801218 $ =
2019-01-21 10:56 METAR KDOV 211556Z AUTO 29021G32KT 10SM CLR M08/M22 A3022 RMK AO2 PK WND
                 27035/36 SLP237 T10831221 $ =
2019-01-21 09:56 METAR KDOV 211456Z AUTO 30023G36KT 10SM CLR M09/M22 A3020 RMK AO2 PK WND
                 29037/15 SLP230 T10911225 52031 $ =
2019-01-21 09:48 METAR KDOV 211448Z AUTO 30024G36KT 10SM SQ CLR M09/M22 A3019 RMK AO2 SLP227 $ =
2019-01-21 08:56 METAR KDOV 211356Z AUTO 29020G34KT 10SM CLR M10/M23 A3017 RMK AO2 PK WND
                 30040/49 SLP220 T11011227 $ =
2019-01-21 07:56 METAR KDOV 211256Z AUTO 28022G33KT 10SM CLR M11/M23 A3014 RMK AO2 PK WND
                 29034/20 SLP210 T11091228 $ =
2019-01-21 06:56 METAR KDOV 211156Z AUTO 29023G30KT 10SM CLR M11/M22 A3010 RMK AO2 PK WND
                 29033/42 SLP197 70003 T11101223 11085 21110 52030 $ =
2019-01-21 05:56 METAR KDOV 211056Z AUTO 28014G26KT 10SM CLR M11/M22 A3008 RMK AO2 PK WND
                 28031/07 SLP190 T11071223 $ =
2019-01-21 04:56 METAR KDOV 210956Z AUTO 28021G33KT 10SM CLR M10/M22 A3004 RMK AO2 PK WND
                 28033/50 SLP176 T11041220 $ =
2019-01-21 03:56 METAR KDOV 210856Z AUTO 29019G27KT 10SM CLR M10/M20 A3002 RMK AO2 PK WND
                 29032/0757 SLP169 T11011203 52023 $ =
2019-01-21 02:56 METAR KDOV 210756Z AUTO 29025G34KT 10SM CLR M09/M21 A3000 RMK AO2 PK WND
                 29034/53 SLP163 T10951209 $ =
2019-01-21 01:56 METAR KDOV 210656Z AUTO 29019G26KT 10SM CLR M09/M21 A2998 RMK AO2 PK WND
                 29039/18 SLP156 T10911206 $ =
2019-01-21 00:56 METAR KDOV 210556Z AUTO 29016G30KT 10SM CLR M08/M19 A2995 RMK AO2 PK WND
                 29036/12 SLP146 T10841193 11026 21084 52038 $ =
2019-01-20 23:56 METAR KDOV 210456Z AUTO 29022G26KT 10SM CLR M07/M17 A2991 RMK AO2 PK WND
                 30030/0357 SLP132 T10721171 401411072 $ =
2019-01-20 22:56 METAR KDOV 210356Z AUTO 29022G35KT 10SM CLR M07/M16 A2988 RMK AO2 SLP122
                 T10681163 $ =
2019-01-20 21:56 METAR KDOV 210256Z AUTO 30021G28KT 10SM FEW039 M06/M14 A2984 RMK AO2 PK WND
                 29034/50 SLP108 T10591142 52043 $ =
2019-01-20 20:56 METAR KDOV 210156Z AUTO 29023G31KT 10SM CLR M05/M14 A2979 RMK AO2 PK WND
                 30035/0059 SLP091 T10501136 $ =
2019-01-20 19:56 METAR KDOV 210056Z AUTO 29021G33KT 10SM OVC037 M04/M12 A2975 RMK AO2 PK WND
                 30034/08 SLP078 T10371117 $ =
2019-01-20 18:56 METAR KDOV 202356Z AUTO 30022G31KT 10SM BKN037 M03/M10 A2971 RMK AO2 PK WND
                 31037/29 SLP064 T10261100 10059 21027 52053 $ =
2019-01-20 17:56 METAR KDOV 202256Z AUTO 31020G24KT 10SM CLR M02/M09 A2966 RMK AO2 PK WND
                 30036/10 SLP047 T10201090 $ =

Support USWX by starting your Amazon purchase here.